This is the latest recevied weather packets stored in our database for station/object K9JWM. If no packets are shown the sender has not sent any weather packets the latest 1 day(s).
| Time | Temp. | Humidity | Pressure | Rain* | Wind** | Luminosity | Snow |
|---|---|---|---|---|---|---|---|
| 1778082431 | 2.78° C | 59% | 1015 hPa | 0 mm | - | - | - |
| 1778078831 | 2.22° C | 63% | 1014.8 hPa | 0 mm | - | - | - |
| 1778077030 | 1.67° C | 67% | 1014.8 hPa | 0 mm | - | - | - |
| 1778075230 | 1.11° C | 69% | 1014.8 hPa | 0 mm | - | - | - |
| 1778071630 | 0.56° C | 70% | 1014.7 hPa | 0 mm | - | - | - |
| 1778069831 | 0.56° C | 68% | 1014.3 hPa | 0 mm | - | - | - |
| 1778068030 | 0.56° C | 66% | 1013.9 hPa | 0 mm | - | - | - |
| 1778065331 | 1.11° C | 64% | 1013.4 hPa | 0 mm | - | - | - |
| 1778063530 | 1.11° C | 69% | 1013.2 hPa | 0 mm | - | - | - |
| 1778061730 | 1.67° C | 67% | 1013.1 hPa | 0 mm | - | - | - |
| 1778060831 | 1.67° C | 65% | 1013.2 hPa | 0 mm | - | - | - |
| 1778059031 | 1.67° C | 67% | 1013 hPa | 0 mm | - | - | - |
| 1778057230 | 1.67° C | 64% | 1012.8 hPa | 0 mm | - | - | - |
| 1778055431 | 1.67° C | 64% | 1012.8 hPa | 0 mm | - | - | - |
| 1778053630 | 1.67° C | 64% | 1012.8 hPa | 0 mm | - | - | - |
| 1778052731 | 1.67° C | 68% | 1012.9 hPa | 0 mm | - | - | - |
| 1778051831 | 1.67° C | 66% | 1012.9 hPa | 0 mm | - | - | - |
| 1778050931 | 1.67° C | 68% | 1012.8 hPa | 0 mm | - | - | - |
| 1778050030 | 1.11° C | 67% | 1012.8 hPa | 0 mm | - | - | - |
| 1778046430 | 1.11° C | 67% | 1012.6 hPa | 0 mm | - | - | - |
| 1778045530 | 1.67° C | 65% | 1012.4 hPa | 0 mm | - | - | - |
| 1778043731 | 2.22° C | 64% | 1012.1 hPa | 0 mm | - | - | - |
| 1778042830 | 2.22° C | 64% | 1012 hPa | 0 mm | - | - | - |
| 1778041930 | 2.78° C | 61% | 1011.9 hPa | 0 mm | - | - | - |
| 1778041029 | 2.78° C | 61% | 1011.9 hPa | 0 mm | - | - | - |
* Rain latest hour (hover to see other rain measurements)
** Current wind speed in m/s (hover to see current wind gust speed)